Terminal Aerodrome Forecast
Issued by NWS Cleveland, OH

Home | Current Version | Previous Version | Text Only | Print | Product List | Glossary Off
Versions: 1 2 3 4 5 6 7 8 9 10 11 12 13 14 15 16 17 18 19 20 21

000
FTUS41 KCLE 222200 AAA
TAFTOL
TAF AMD
KTOL 222225Z 2222/2318 21012KT P6SM VCSH OVC035
     FM230900 21010KT 5SM -SHRA OVC025
     FM231400 18010KT P6SM VCSH OVC025=

USA.gov is the U.S. government's official web portal to all federal, state and local government web resources and services.